createdAt,value
2018-09-19T00:00:25.294Z,1006.58
2018-09-19T00:01:25.143Z,1006.56
2018-09-19T00:02:25.197Z,1006.55
2018-09-19T00:03:25.197Z,1006.58
2018-09-19T00:04:25.222Z,1006.57
2018-09-19T00:05:25.259Z,1006.55
2018-09-19T00:06:25.273Z,1006.58
2018-09-19T00:07:25.302Z,1006.55
2018-09-19T00:08:25.330Z,1006.53
2018-09-19T00:09:25.358Z,1006.54
2018-09-19T00:10:25.375Z,1006.54
2018-09-19T00:11:25.395Z,1006.56
2018-09-19T00:12:25.417Z,1006.54
2018-09-19T00:13:25.448Z,1006.55
2018-09-19T00:14:25.476Z,1006.54
2018-09-19T00:15:25.512Z,1006.55
2018-09-19T00:16:25.522Z,1006.53
2018-09-19T00:17:25.568Z,1006.52
2018-09-19T00:18:25.578Z,1006.56
2018-09-19T00:19:25.603Z,1006.54
2018-09-19T00:20:25.630Z,1006.53
2018-09-19T00:21:25.644Z,1006.51
2018-09-19T00:22:25.739Z,1006.51
2018-09-19T00:23:25.698Z,1006.47
2018-09-19T00:24:25.828Z,1006.49
2018-09-19T00:25:25.771Z,1006.46
2018-09-19T00:26:25.775Z,1006.53
2018-09-19T00:27:25.803Z,1006.54
2018-09-19T00:28:25.822Z,1006.54
2018-09-19T00:29:25.852Z,1006.55
2018-09-19T00:30:25.870Z,1006.60
2018-09-19T00:31:25.916Z,1006.62
2018-09-19T00:32:25.924Z,1006.61
2018-09-19T00:33:25.982Z,1006.60
2018-09-19T00:34:25.975Z,1006.61
2018-09-19T00:35:26.070Z,1006.62
2018-09-19T00:36:26.022Z,1006.65
2018-09-19T00:37:26.059Z,1006.70
2018-09-19T00:38:26.095Z,1006.68
2018-09-19T00:39:26.099Z,1006.72
2018-09-19T00:40:26.128Z,1006.70
2018-09-19T00:41:26.159Z,1006.69
2018-09-19T00:42:26.181Z,1006.69
2018-09-19T00:43:26.221Z,1006.67
2018-09-19T00:44:26.233Z,1006.67
2018-09-19T00:45:26.250Z,1006.68
2018-09-19T00:46:26.361Z,1006.66
2018-09-19T00:47:26.310Z,1006.68
2018-09-19T00:48:26.325Z,1006.70
2018-09-19T00:49:26.351Z,1006.69
2018-09-19T00:50:26.377Z,1006.76
2018-09-19T00:51:26.416Z,1006.77
2018-09-19T00:52:26.429Z,1006.83
2018-09-19T00:53:26.479Z,1006.80
2018-09-19T00:54:26.481Z,1006.82
2018-09-19T00:55:26.503Z,1006.81
2018-09-19T00:56:26.533Z,1006.84
2018-09-19T00:57:26.640Z,1006.83
2018-09-19T00:58:26.626Z,1006.83
2018-09-19T00:59:26.663Z,1006.79
2018-09-19T01:00:26.648Z,1006.78
2018-09-19T01:01:26.652Z,1006.79
2018-09-19T01:02:26.723Z,1006.73
2018-09-19T01:03:26.703Z,1006.74
2018-09-19T01:04:26.728Z,1006.71
2018-09-19T01:05:26.748Z,1006.72
2018-09-19T01:06:26.795Z,1006.74
2018-09-19T01:07:26.804Z,1006.75
2018-09-19T01:08:26.824Z,1006.76
2018-09-19T01:09:26.859Z,1006.75
2018-09-19T01:10:26.875Z,1006.77
2018-09-19T01:11:26.902Z,1006.79
2018-09-19T01:12:26.925Z,1006.80
2018-09-19T01:13:26.952Z,1006.80
2018-09-19T01:14:26.970Z,1006.79
2018-09-19T01:15:27.012Z,1006.81
2018-09-19T01:16:27.022Z,1006.84
2018-09-19T01:17:27.054Z,1006.83
2018-09-19T01:18:27.074Z,1006.84
2018-09-19T01:19:27.096Z,1006.80
2018-09-19T01:20:27.117Z,1006.80
2018-09-19T01:21:27.219Z,1006.81
2018-09-19T01:22:27.176Z,1006.82
2018-09-19T01:23:27.211Z,1006.81
2018-09-19T01:24:27.218Z,1006.81
2018-09-19T01:25:27.260Z,1006.80
2018-09-19T01:26:27.277Z,1006.81
2018-09-19T01:27:27.298Z,1006.86
2018-09-19T01:28:27.321Z,1006.86
2018-09-19T01:29:27.343Z,1006.83
2018-09-19T01:30:27.373Z,1006.85
2018-09-19T01:31:27.389Z,1006.88
2018-09-19T01:32:27.439Z,1006.91
2018-09-19T01:33:27.451Z,1006.90
2018-09-19T01:34:27.473Z,1006.96
2018-09-19T01:35:27.496Z,1006.96
2018-09-19T01:36:27.523Z,1006.96
2018-09-19T01:37:27.556Z,1006.97
2018-09-19T01:38:27.575Z,1007.00
2018-09-19T01:39:27.594Z,1006.99
2018-09-19T01:40:27.617Z,1006.99
2018-09-19T01:41:27.647Z,1006.97
2018-09-19T01:43:27.705Z,1006.98
2018-09-19T01:44:27.727Z,1006.98
2018-09-19T01:45:27.743Z,1007.01
2018-09-19T01:46:27.845Z,1006.98
2018-09-19T01:47:27.796Z,1007.00
2018-09-19T01:48:27.811Z,1007.01
2018-09-19T01:49:27.843Z,1007.03
2018-09-19T01:50:27.868Z,1007.02
2018-09-19T01:51:27.896Z,1007.05
2018-09-19T01:52:27.923Z,1007.10
2018-09-19T01:53:28.623Z,1007.04
2018-09-19T01:54:27.966Z,1007.08
2018-09-19T01:55:27.999Z,1007.04
2018-09-19T01:56:28.021Z,1007.11
2018-09-19T01:57:28.051Z,1007.02
2018-09-19T01:58:28.072Z,1007.04
2018-09-19T01:59:28.105Z,1007.04
2018-09-19T02:00:28.112Z,1007.08
2018-09-19T02:01:28.141Z,1007.09
2018-09-19T02:02:28.166Z,1007.04
2018-09-19T02:03:28.184Z,1007.07
2018-09-19T02:04:28.209Z,1007.08
2018-09-19T02:05:28.243Z,1007.05
2018-09-19T02:06:28.269Z,1007.07
2018-09-19T02:07:28.345Z,1007.07
2018-09-19T02:08:28.307Z,1007.01
2018-09-19T02:09:28.335Z,1007.02
2018-09-19T02:10:28.362Z,1007.02
2018-09-19T02:11:28.381Z,1007.00
2018-09-19T02:12:28.413Z,1007.01
2018-09-19T02:13:28.428Z,1006.96
2018-09-19T02:14:28.457Z,1006.97
2018-09-19T02:15:28.482Z,1006.95
2018-09-19T02:16:28.537Z,1006.93
2018-09-19T02:17:28.529Z,1006.96
2018-09-19T02:18:28.558Z,1006.95
2018-09-19T02:19:28.580Z,1006.99
2018-09-19T02:20:28.617Z,1007.02
2018-09-19T02:21:28.623Z,1006.99
2018-09-19T02:22:28.671Z,1006.99
2018-09-19T02:23:28.677Z,1007.01
2018-09-19T02:24:28.701Z,1007.02
2018-09-19T02:25:28.725Z,1007.04
2018-09-19T02:26:28.754Z,1007.01
2018-09-19T02:27:28.787Z,1007.04
2018-09-19T02:28:28.818Z,1007.03
2018-09-19T02:29:28.824Z,1007.03
2018-09-19T02:30:28.855Z,1007.04
2018-09-19T02:31:28.871Z,1007.04
2018-09-19T02:32:28.894Z,1007.07
2018-09-19T02:33:28.923Z,1007.06
2018-09-19T02:34:28.943Z,1007.04
2018-09-19T02:35:28.997Z,1007.07
2018-09-19T02:36:29.000Z,1007.05
2018-09-19T02:37:29.032Z,1007.05
2018-09-19T02:38:29.034Z,1007.05
2018-09-19T02:39:29.065Z,1007.03
2018-09-19T02:40:29.094Z,1007.01
2018-09-19T02:41:29.124Z,1007.03
2018-09-19T02:42:29.135Z,1007.01
2018-09-19T02:43:29.156Z,1007.03
2018-09-19T02:44:29.195Z,1007.02
2018-09-19T02:45:29.243Z,1007.06
2018-09-19T02:46:29.255Z,1007.03
2018-09-19T02:47:29.256Z,1007.05
2018-09-19T02:48:29.293Z,1007.05
2018-09-19T02:49:29.307Z,1007.06
2018-09-19T02:50:29.344Z,1007.09
2018-09-19T02:51:29.360Z,1007.09
2018-09-19T02:52:29.408Z,1007.12
2018-09-19T02:53:29.410Z,1007.09
2018-09-19T02:54:29.442Z,1007.11
2018-09-19T02:55:29.466Z,1007.13
2018-09-19T02:57:29.511Z,1007.12
2018-09-19T02:58:29.529Z,1007.11
2018-09-19T02:59:29.551Z,1007.11
2018-09-19T03:00:29.577Z,1007.14
2018-09-19T03:01:29.596Z,1007.15
2018-09-19T03:02:29.709Z,1007.14
2018-09-19T03:03:29.650Z,1007.15
2018-09-19T03:04:29.672Z,1007.16
2018-09-19T03:05:29.719Z,1007.12
2018-09-19T03:06:29.769Z,1007.14
2018-09-19T03:07:30.659Z,1007.14
2018-09-19T03:08:29.778Z,1007.15
2018-09-19T03:09:29.797Z,1007.13
2018-09-19T03:10:29.815Z,1007.14
2018-09-19T03:11:29.845Z,1007.15
2018-09-19T03:12:29.866Z,1007.16
2018-09-19T03:13:29.883Z,1007.11
2018-09-19T03:14:29.925Z,1007.10
2018-09-19T03:15:29.942Z,1007.06
2018-09-19T03:16:29.981Z,1007.07
2018-09-19T03:17:30.077Z,1007.04
2018-09-19T03:18:30.011Z,1007.06
2018-09-19T03:19:30.037Z,1007.04
2018-09-19T03:20:30.070Z,1007.07
2018-09-19T03:21:30.091Z,1007.07
2018-09-19T03:22:30.104Z,1007.07
2018-09-19T03:23:30.130Z,1007.10
2018-09-19T03:24:30.153Z,1007.07
2018-09-19T03:25:30.173Z,1007.08
2018-09-19T03:26:30.213Z,1007.05
2018-09-19T03:27:30.234Z,1007.06
2018-09-19T03:28:30.249Z,1007.04
2018-09-19T03:29:30.281Z,1007.00
2018-09-19T03:30:30.305Z,1007.02
2018-09-19T03:31:30.320Z,1007.00
2018-09-19T03:32:30.354Z,1007.02
2018-09-19T03:33:30.370Z,1007.03
2018-09-19T03:34:30.395Z,1007.00
2018-09-19T03:35:30.445Z,1006.99
2018-09-19T03:36:30.447Z,1007.02
2018-09-19T03:37:30.470Z,1007.02
2018-09-19T03:38:30.520Z,1007.02
2018-09-19T03:39:30.523Z,1006.97
2018-09-19T03:40:30.556Z,1006.99
2018-09-19T03:41:30.570Z,1006.97
2018-09-19T03:42:30.591Z,1006.97
2018-09-19T03:43:30.620Z,1006.97
2018-09-19T03:44:30.636Z,1006.95
2018-09-19T03:45:30.662Z,1007.00
2018-09-19T03:46:30.681Z,1006.97
2018-09-19T03:47:30.719Z,1006.97
2018-09-19T03:48:30.823Z,1006.94
2018-09-19T03:49:30.761Z,1006.94
2018-09-19T03:50:30.784Z,1006.96
2018-09-19T03:51:30.800Z,1006.99
2018-09-19T03:52:30.837Z,1007.02
2018-09-19T03:53:30.887Z,1006.97
2018-09-19T03:54:30.873Z,1007.01
2018-09-19T03:55:30.902Z,1007.00
2018-09-19T03:56:30.929Z,1006.96
2018-09-19T03:57:30.954Z,1006.99
2018-09-19T03:58:30.985Z,1006.97
2018-09-19T03:59:31.029Z,1006.96
2018-09-19T04:00:31.034Z,1006.96
2018-09-19T04:01:31.055Z,1006.96
2018-09-19T04:02:31.076Z,1006.98
2018-09-19T04:03:31.100Z,1007.03
2018-09-19T04:04:31.118Z,1007.03
2018-09-19T04:05:31.152Z,1007.09
2018-09-19T04:06:31.173Z,1007.08
2018-09-19T04:07:31.190Z,1007.08
2018-09-19T04:08:31.217Z,1007.07
2018-09-19T04:09:32.200Z,1007.08
2018-09-19T04:10:31.266Z,1007.10
2018-09-19T04:11:31.344Z,1007.10
2018-09-19T04:12:31.328Z,1007.11
2018-09-19T04:13:31.340Z,1007.21
2018-09-19T04:14:31.445Z,1007.21
2018-09-19T04:15:31.406Z,1007.20
2018-09-19T04:16:31.405Z,1007.18
2018-09-19T04:17:31.429Z,1007.20
2018-09-19T04:18:31.462Z,1007.25
2018-09-19T04:19:31.484Z,1007.27
2018-09-19T04:20:31.516Z,1007.26
2018-09-19T04:21:31.530Z,1007.26
2018-09-19T04:22:31.566Z,1007.28
2018-09-19T04:23:31.585Z,1007.25
2018-09-19T04:24:31.614Z,1007.25
2018-09-19T04:25:31.628Z,1007.20
2018-09-19T04:26:31.672Z,1007.25
2018-09-19T04:27:31.675Z,1007.22
2018-09-19T04:28:31.720Z,1007.24
2018-09-19T04:29:31.722Z,1007.25
2018-09-19T04:30:31.751Z,1007.27
2018-09-19T04:31:31.776Z,1007.31
2018-09-19T04:32:31.820Z,1007.28
2018-09-19T04:33:31.820Z,1007.33
2018-09-19T04:34:31.864Z,1007.31
2018-09-19T04:35:31.868Z,1007.32
2018-09-19T04:36:31.935Z,1007.35
2018-09-19T04:37:31.942Z,1007.34
2018-09-19T04:38:31.959Z,1007.34
2018-09-19T04:39:31.963Z,1007.36
2018-09-19T04:40:31.989Z,1007.37
2018-09-19T04:41:32.012Z,1007.38
2018-09-19T04:42:32.044Z,1007.36
2018-09-19T04:43:32.059Z,1007.36
2018-09-19T04:44:32.086Z,1007.41
2018-09-19T04:45:32.112Z,1007.43
2018-09-19T04:46:32.137Z,1007.44
2018-09-19T04:47:32.161Z,1007.40
2018-09-19T04:48:32.177Z,1007.45
2018-09-19T04:49:32.213Z,1007.47
2018-09-19T04:50:32.249Z,1007.49
2018-09-19T04:51:32.366Z,1007.46
2018-09-19T04:52:32.279Z,1007.51
2018-09-19T04:53:32.302Z,1007.54
2018-09-19T04:54:32.330Z,1007.52
2018-09-19T04:55:32.353Z,1007.57
2018-09-19T04:56:32.391Z,1007.54
2018-09-19T04:57:32.399Z,1007.55
2018-09-19T04:58:32.432Z,1007.60
2018-09-19T04:59:32.442Z,1007.56
2018-09-19T05:00:32.469Z,1007.58
2018-09-19T05:01:32.495Z,1007.56
2018-09-19T05:02:32.514Z,1007.60
2018-09-19T05:03:32.591Z,1007.56
2018-09-19T05:04:32.562Z,1007.59
2018-09-19T05:05:32.601Z,1007.56
2018-09-19T05:06:32.615Z,1007.59
2018-09-19T05:07:32.637Z,1007.58
2018-09-19T05:08:32.660Z,1007.55
2018-09-19T05:09:32.829Z,1007.59
2018-09-19T05:10:32.723Z,1007.59
2018-09-19T05:11:32.819Z,1007.59
2018-09-19T05:12:32.758Z,1007.57
2018-09-19T05:13:32.799Z,1007.59
2018-09-19T05:14:32.813Z,1007.56
2018-09-19T05:15:32.823Z,1007.56
2018-09-19T05:16:32.848Z,1007.57
2018-09-19T05:17:32.875Z,1007.58
2018-09-19T05:18:33.724Z,1007.57
2018-09-19T05:19:32.940Z,1007.58
2018-09-19T05:20:32.954Z,1007.57
2018-09-19T05:21:32.969Z,1007.59
2018-09-19T05:22:33.051Z,1007.56
2018-09-19T05:23:33.056Z,1007.59
2018-09-19T05:24:33.048Z,1007.55
2018-09-19T05:25:33.066Z,1007.55
2018-09-19T05:26:33.089Z,1007.57
2018-09-19T05:27:33.113Z,1007.59
2018-09-19T05:28:33.156Z,1007.59
2018-09-19T05:29:33.173Z,1007.60
2018-09-19T05:30:33.191Z,1007.62
2018-09-19T05:31:33.262Z,1007.58
2018-09-19T05:32:33.240Z,1007.64
2018-09-19T05:33:33.361Z,1007.65
2018-09-19T05:34:33.323Z,1007.65
2018-09-19T05:35:33.315Z,1007.69
2018-09-19T05:36:33.327Z,1007.73
2018-09-19T05:37:33.376Z,1007.71
2018-09-19T05:38:33.376Z,1007.78
2018-09-19T05:39:33.406Z,1007.77
2018-09-19T05:40:33.422Z,1007.77
2018-09-19T05:41:33.485Z,1007.86
2018-09-19T05:42:33.474Z,1007.83
2018-09-19T05:43:33.500Z,1007.85
2018-09-19T05:44:33.525Z,1007.84
2018-09-19T05:45:33.651Z,1007.88
2018-09-19T05:46:33.595Z,1007.89
2018-09-19T05:47:33.672Z,1007.96
2018-09-19T05:48:33.614Z,1007.94
2018-09-19T05:49:33.641Z,1007.96
2018-09-19T05:50:33.660Z,1008.00
2018-09-19T05:51:33.684Z,1008.00
2018-09-19T05:52:33.714Z,1008.06
2018-09-19T05:53:33.740Z,1008.08
2018-09-19T05:54:33.786Z,1008.12
2018-09-19T05:55:33.784Z,1008.12
2018-09-19T05:56:33.807Z,1008.17
2018-09-19T05:57:33.851Z,1008.19
2018-09-19T05:58:33.851Z,1008.18
2018-09-19T05:59:33.932Z,1008.21
2018-09-19T06:00:33.945Z,1008.21
2018-09-19T06:01:33.946Z,1008.24
2018-09-19T06:02:33.962Z,1008.25
2018-09-19T06:03:34.048Z,1008.24
2018-09-19T06:04:34.018Z,1008.22
2018-09-19T06:05:34.036Z,1008.25
2018-09-19T06:06:34.082Z,1008.26
2018-09-19T06:07:34.159Z,1008.25
2018-09-19T06:08:34.180Z,1008.25
2018-09-19T06:09:34.189Z,1008.27
2018-09-19T06:10:34.207Z,1008.24
2018-09-19T06:11:34.162Z,1008.27
2018-09-19T06:12:34.213Z,1008.24
2018-09-19T06:13:34.237Z,1008.28
2018-09-19T06:14:34.234Z,1008.32
2018-09-19T06:15:34.263Z,1008.27
2018-09-19T06:16:34.309Z,1008.32
2018-09-19T06:17:34.300Z,1008.31
2018-09-19T06:18:34.356Z,1008.35
2018-09-19T06:19:34.378Z,1008.36
2018-09-19T06:20:34.374Z,1008.41
2018-09-19T06:21:34.399Z,1008.45
2018-09-19T06:22:34.417Z,1008.42
2018-09-19T06:23:34.589Z,1008.43
2018-09-19T06:24:34.558Z,1008.47
2018-09-19T06:25:34.499Z,1008.44
2018-09-19T06:26:34.556Z,1008.42
2018-09-19T06:27:34.558Z,1008.37
2018-09-19T06:28:34.576Z,1008.40
2018-09-19T06:29:34.590Z,1008.37
2018-09-19T06:30:34.623Z,1008.38
2018-09-19T06:31:34.675Z,1008.36
2018-09-19T06:32:34.739Z,1008.40
2018-09-19T06:33:34.804Z,1008.45
2018-09-19T06:34:34.702Z,1008.45
2018-09-19T06:35:34.727Z,1008.46
2018-09-19T06:36:34.744Z,1008.52
2018-09-19T06:37:34.787Z,1008.49
2018-09-19T06:38:34.888Z,1008.48
2018-09-19T06:39:34.818Z,1008.53
2018-09-19T06:40:34.916Z,1008.53
2018-09-19T06:41:34.871Z,1008.57
2018-09-19T06:42:34.903Z,1008.55
2018-09-19T06:43:34.952Z,1008.56
2018-09-19T06:44:35.010Z,1008.53
2018-09-19T06:45:35.105Z,1008.53
2018-09-19T06:46:35.053Z,1008.49
2018-09-19T06:47:35.035Z,1008.52
2018-09-19T06:48:35.067Z,1008.50
2018-09-19T06:49:35.072Z,1008.54
2018-09-19T06:50:35.088Z,1008.52
2018-09-19T06:51:35.110Z,1008.55
2018-09-19T06:52:35.184Z,1008.60
2018-09-19T06:53:35.183Z,1008.62
2018-09-19T06:54:35.256Z,1008.59
2018-09-19T06:55:35.244Z,1008.60
2018-09-19T06:56:35.288Z,1008.63
2018-09-19T06:57:35.246Z,1008.62
2018-09-19T06:58:35.288Z,1008.61
2018-09-19T06:59:35.326Z,1008.62
2018-09-19T07:00:35.339Z,1008.67
2018-09-19T07:01:35.379Z,1008.66
2018-09-19T07:02:35.377Z,1008.67
2018-09-19T07:03:35.407Z,1008.66
2018-09-19T07:04:35.422Z,1008.66
2018-09-19T07:05:35.459Z,1008.66
2018-09-19T07:06:35.460Z,1008.69
2018-09-19T07:07:35.491Z,1008.70
2018-09-19T07:08:35.521Z,1008.63
2018-09-19T07:09:35.548Z,1008.63
2018-09-19T07:10:35.666Z,1008.67
2018-09-19T07:11:35.596Z,1008.66
2018-09-19T07:12:35.710Z,1008.71
2018-09-19T07:13:35.696Z,1008.71
2018-09-19T07:14:35.721Z,1008.75
2018-09-19T07:15:35.706Z,1008.74
2018-09-19T07:16:35.819Z,1008.70
2018-09-19T07:17:35.737Z,1008.69
2018-09-19T07:18:35.946Z,1008.68
2018-09-19T07:19:35.794Z,1008.67
2018-09-19T07:20:35.806Z,1008.66
2018-09-19T07:21:35.846Z,1008.62
2018-09-19T07:22:35.853Z,1008.62
2018-09-19T07:23:35.895Z,1008.63
2018-09-19T07:24:35.911Z,1008.60
2018-09-19T07:25:35.922Z,1008.60
2018-09-19T07:26:35.983Z,1008.60
2018-09-19T07:27:35.984Z,1008.63
2018-09-19T07:28:36.079Z,1008.62
2018-09-19T07:29:36.078Z,1008.57
2018-09-19T07:30:36.131Z,1008.59
2018-09-19T07:31:36.070Z,1008.57
2018-09-19T07:32:36.159Z,1008.59
2018-09-19T07:33:36.113Z,1008.59
2018-09-19T07:34:36.230Z,1008.59
2018-09-19T07:35:36.180Z,1008.60
2018-09-19T07:36:36.195Z,1008.61
2018-09-19T07:37:36.212Z,1008.59
2018-09-19T07:38:36.236Z,1008.57
2018-09-19T07:39:36.268Z,1008.50
2018-09-19T07:40:36.305Z,1008.54
2018-09-19T07:41:36.320Z,1008.53
2018-09-19T07:42:36.374Z,1008.51
2018-09-19T07:43:36.388Z,1008.55
2018-09-19T07:44:36.419Z,1008.54
2018-09-19T07:45:36.439Z,1008.57
2018-09-19T07:46:36.489Z,1008.58
2018-09-19T07:47:36.473Z,1008.61
2018-09-19T07:48:36.491Z,1008.57
2018-09-19T07:49:36.516Z,1008.59
2018-09-19T07:50:36.529Z,1008.59
2018-09-19T07:51:36.555Z,1008.58
2018-09-19T07:52:36.574Z,1008.58
2018-09-19T07:53:36.645Z,1008.61
2018-09-19T07:54:36.673Z,1008.59
2018-09-19T07:55:36.657Z,1008.58
2018-09-19T07:56:36.765Z,1008.59
2018-09-19T07:57:36.694Z,1008.57
2018-09-19T07:58:36.775Z,1008.58
2018-09-19T07:59:36.789Z,1008.59
2018-09-19T08:00:36.906Z,1008.60
2018-09-19T08:01:36.791Z,1008.64
2018-09-19T08:02:36.816Z,1008.63
2018-09-19T08:03:36.895Z,1008.66
2018-09-19T08:04:36.930Z,1008.66
2018-09-19T08:05:36.908Z,1008.66
2018-09-19T08:06:36.919Z,1008.68
2018-09-19T08:07:36.946Z,1008.71
2018-09-19T08:08:36.963Z,1008.76
2018-09-19T08:09:36.993Z,1008.73
2018-09-19T08:10:37.013Z,1008.76
2018-09-19T08:11:37.040Z,1008.73
2018-09-19T08:12:37.064Z,1008.74
2018-09-19T08:13:37.096Z,1008.77
2018-09-19T08:14:37.151Z,1008.71
2018-09-19T08:15:37.272Z,1008.75
2018-09-19T08:16:37.168Z,1008.74
2018-09-19T08:17:37.259Z,1008.76
2018-09-19T08:18:37.231Z,1008.79
2018-09-19T08:19:37.307Z,1008.78
2018-09-19T08:20:37.268Z,1008.71
2018-09-19T08:21:37.283Z,1008.76
2018-09-19T08:22:37.363Z,1008.76
2018-09-19T08:23:37.326Z,1008.77
2018-09-19T08:24:37.366Z,1008.75
2018-09-19T08:25:37.384Z,1008.74
2018-09-19T08:26:37.409Z,1008.72
2018-09-19T08:27:37.439Z,1008.76
2018-09-19T08:28:37.460Z,1008.83
2018-09-19T08:29:37.485Z,1008.85
2018-09-19T08:30:37.501Z,1008.83
2018-09-19T08:31:37.540Z,1008.86
2018-09-19T08:32:37.555Z,1008.84
2018-09-19T08:33:37.579Z,1008.88
2018-09-19T08:34:37.602Z,1008.87
2018-09-19T08:35:37.626Z,1008.89
2018-09-19T08:36:37.647Z,1008.88
2018-09-19T08:37:37.675Z,1008.91
2018-09-19T08:38:37.719Z,1008.89
2018-09-19T08:39:37.794Z,1008.90
2018-09-19T08:40:37.754Z,1008.87
2018-09-19T08:41:37.794Z,1008.87
2018-09-19T08:42:37.839Z,1008.90
2018-09-19T08:43:37.834Z,1008.90
2018-09-19T08:44:37.873Z,1008.86
2018-09-19T08:45:37.874Z,1008.88
2018-09-19T08:46:37.900Z,1008.88
2018-09-19T08:47:37.927Z,1008.87
2018-09-19T08:48:37.960Z,1008.87
2018-09-19T08:49:37.973Z,1008.87
2018-09-19T08:50:38.040Z,1008.89
2018-09-19T08:51:38.021Z,1008.89
2018-09-19T08:52:38.059Z,1008.91
2018-09-19T08:53:38.076Z,1008.91
2018-09-19T08:54:38.104Z,1008.92
2018-09-19T08:55:38.122Z,1008.90
2018-09-19T08:56:38.172Z,1008.92
2018-09-19T08:57:38.169Z,1008.95
2018-09-19T08:58:38.195Z,1008.90
2018-09-19T08:59:38.233Z,1008.90
2018-09-19T09:00:38.239Z,1008.92
2018-09-19T09:01:38.275Z,1008.90
2018-09-19T09:02:38.314Z,1008.87
2018-09-19T09:03:38.320Z,1008.88
2018-09-19T09:04:38.380Z,1008.87
2018-09-19T09:05:38.391Z,1008.87
2018-09-19T09:06:38.414Z,1008.92
2018-09-19T09:07:38.422Z,1008.92
2018-09-19T09:08:38.451Z,1008.91
2018-09-19T09:09:38.477Z,1008.99
2018-09-19T09:10:38.496Z,1008.93
2018-09-19T09:11:38.524Z,1008.97
2018-09-19T09:12:38.596Z,1008.95
2018-09-19T09:13:38.570Z,1008.95
2018-09-19T09:14:38.625Z,1009.01
2018-09-19T09:15:38.630Z,1009.01
2018-09-19T09:16:38.647Z,1009.03
2018-09-19T09:17:38.693Z,1009.02
2018-09-19T09:18:38.703Z,1009.08
2018-09-19T09:19:38.727Z,1009.03
2018-09-19T09:20:38.749Z,1009.05
2018-09-19T09:21:38.782Z,1009.04
2018-09-19T09:22:38.809Z,1009.06
2018-09-19T09:23:38.838Z,1009.01
2018-09-19T09:24:38.856Z,1009.06
2018-09-19T09:25:38.937Z,1009.02
2018-09-19T09:26:38.925Z,1009.06
2018-09-19T09:27:38.944Z,1009.06
2018-09-19T09:28:38.966Z,1009.05
2018-09-19T09:29:38.995Z,1009.08
2018-09-19T09:30:39.024Z,1009.06
2018-09-19T09:31:39.055Z,1009.10
2018-09-19T09:32:39.078Z,1009.09
2018-09-19T09:33:39.094Z,1009.09
2018-09-19T09:34:39.117Z,1009.09
2018-09-19T09:35:39.148Z,1009.07
2018-09-19T09:36:39.231Z,1009.05
2018-09-19T09:37:39.200Z,1009.08
2018-09-19T09:38:39.229Z,1009.03
2018-09-19T09:39:39.249Z,1009.05
2018-09-19T09:40:39.337Z,1009.03
2018-09-19T09:41:39.306Z,1009.06
2018-09-19T09:42:39.341Z,1009.07
2018-09-19T09:43:39.422Z,1009.05
2018-09-19T09:44:39.388Z,1009.04
2018-09-19T09:45:39.408Z,1009.05
2018-09-19T09:46:39.437Z,1009.04
2018-09-19T09:47:39.458Z,1009.04
2018-09-19T09:48:39.481Z,1008.99
2018-09-19T09:49:39.556Z,1009.00
2018-09-19T09:50:39.527Z,1009.04
2018-09-19T09:51:39.557Z,1009.01
2018-09-19T09:52:39.588Z,1008.96
2018-09-19T09:53:39.613Z,1008.96
2018-09-19T09:54:39.646Z,1008.99
2018-09-19T09:55:39.662Z,1008.94
2018-09-19T09:56:39.763Z,1008.91
2018-09-19T09:57:39.754Z,1008.89
2018-09-19T09:58:39.738Z,1008.87
2018-09-19T09:59:39.770Z,1008.88
2018-09-19T10:00:39.809Z,1008.85
2018-09-19T10:01:39.820Z,1008.85
2018-09-19T10:02:39.860Z,1008.85
2018-09-19T10:03:39.878Z,1008.81
2018-09-19T10:04:39.903Z,1008.77
2018-09-19T10:05:39.928Z,1008.77
2018-09-19T10:06:39.995Z,1008.70
2018-09-19T10:07:40.004Z,1008.72
2018-09-19T10:08:40.006Z,1008.70
2018-09-19T10:09:40.026Z,1008.70
2018-09-19T10:10:40.050Z,1008.68
2018-09-19T10:11:40.075Z,1008.69
2018-09-19T10:12:40.124Z,1008.74
2018-09-19T10:13:40.176Z,1008.71
2018-09-19T10:14:40.162Z,1008.67
2018-09-19T10:15:40.186Z,1008.66
2018-09-19T10:16:40.208Z,1008.66
2018-09-19T10:17:40.234Z,1008.64
2018-09-19T10:18:40.421Z,1008.63
2018-09-19T10:19:40.313Z,1008.57
2018-09-19T10:20:40.306Z,1008.55
2018-09-19T10:21:40.336Z,1008.55
2018-09-19T10:22:40.365Z,1008.52
2018-09-19T10:23:40.387Z,1008.57
2018-09-19T10:24:40.408Z,1008.54
2018-09-19T10:25:40.437Z,1008.52
2018-09-19T10:26:40.471Z,1008.51
2018-09-19T10:27:40.498Z,1008.53
2018-09-19T10:28:40.520Z,1008.56
2018-09-19T10:29:40.577Z,1008.57
2018-09-19T10:30:40.582Z,1008.58
2018-09-19T10:31:40.591Z,1008.58
2018-09-19T10:32:40.626Z,1008.61
2018-09-19T10:33:40.641Z,1008.59
2018-09-19T10:34:40.671Z,1008.58
2018-09-19T10:35:40.696Z,1008.60
2018-09-19T10:36:40.727Z,1008.56
2018-09-19T10:37:40.750Z,1008.59
2018-09-19T10:38:40.783Z,1008.55
2018-09-19T10:39:40.816Z,1008.55
2018-09-19T10:40:40.859Z,1008.50
2018-09-19T10:41:40.883Z,1008.48
2018-09-19T10:42:40.944Z,1008.49
2018-09-19T10:43:40.909Z,1008.49
2018-09-19T10:44:40.936Z,1008.50
2018-09-19T10:45:40.967Z,1008.49
2018-09-19T10:46:40.992Z,1008.52
2018-09-19T10:47:41.016Z,1008.51
2018-09-19T10:48:41.046Z,1008.49
2018-09-19T10:49:41.070Z,1008.50
2018-09-19T10:50:41.107Z,1008.45
2018-09-19T10:51:41.133Z,1008.44
2018-09-19T10:52:41.144Z,1008.43
2018-09-19T10:53:41.194Z,1008.44
2018-09-19T10:54:41.895Z,1008.39
2018-09-19T10:55:41.234Z,1008.41
2018-09-19T10:56:41.282Z,1008.44
2018-09-19T10:57:41.332Z,1008.43
2018-09-19T10:58:41.300Z,1008.44
2018-09-19T10:59:41.333Z,1008.38
2018-09-19T11:00:41.355Z,1008.38
2018-09-19T11:01:41.414Z,1008.36
2018-09-19T11:02:41.414Z,1008.40
2018-09-19T11:03:41.445Z,1008.38
2018-09-19T11:04:41.460Z,1008.38
2018-09-19T11:05:41.488Z,1008.41
2018-09-19T11:06:41.526Z,1008.40
2018-09-19T11:07:41.545Z,1008.43
2018-09-19T11:08:41.568Z,1008.42
2018-09-19T11:09:41.604Z,1008.45
2018-09-19T11:10:41.621Z,1008.44
2018-09-19T11:11:41.649Z,1008.41
2018-09-19T11:12:41.684Z,1008.42
2018-09-19T11:13:41.740Z,1008.39
2018-09-19T11:14:41.729Z,1008.43
2018-09-19T11:15:41.757Z,1008.47
2018-09-19T11:16:41.789Z,1008.45
2018-09-19T11:17:41.806Z,1008.42
2018-09-19T11:18:41.843Z,1008.45
2018-09-19T11:19:41.871Z,1008.44
2018-09-19T11:20:41.890Z,1008.48
2018-09-19T11:21:41.918Z,1008.43
2018-09-19T11:22:41.945Z,1008.45
2018-09-19T11:23:41.968Z,1008.37
2018-09-19T11:24:42.001Z,1008.37
2018-09-19T11:25:42.035Z,1008.31
2018-09-19T11:26:42.052Z,1008.37
2018-09-19T11:27:42.094Z,1008.41
2018-09-19T11:28:42.911Z,1008.38
2018-09-19T11:29:42.138Z,1008.39
2018-09-19T11:30:42.202Z,1008.34
2018-09-19T11:31:42.193Z,1008.38
2018-09-19T11:32:42.217Z,1008.32
2018-09-19T11:33:42.283Z,1008.33
2018-09-19T11:34:42.274Z,1008.30
2018-09-19T11:36:42.323Z,1008.32
2018-09-19T11:37:42.353Z,1008.33
2018-09-19T11:38:42.385Z,1008.33
2018-09-19T11:39:42.424Z,1008.33
2018-09-19T11:40:42.435Z,1008.28
2018-09-19T11:41:42.474Z,1008.30
2018-09-19T11:42:42.493Z,1008.26
2018-09-19T11:43:42.521Z,1008.23
2018-09-19T11:44:42.549Z,1008.20
2018-09-19T11:45:42.585Z,1008.19
2018-09-19T11:46:42.740Z,1008.21
2018-09-19T11:47:42.639Z,1008.13
2018-09-19T11:48:42.667Z,1008.16
2018-09-19T11:49:42.696Z,1008.17
2018-09-19T11:50:42.727Z,1008.17
2018-09-19T11:51:42.754Z,1008.15
2018-09-19T11:52:42.787Z,1008.16
2018-09-19T11:53:42.811Z,1008.16
2018-09-19T11:54:42.835Z,1008.15
2018-09-19T11:55:42.859Z,1008.11
2018-09-19T11:56:42.893Z,1008.11
2018-09-19T11:57:42.923Z,1008.12
2018-09-19T11:58:42.961Z,1008.10
2018-09-19T11:59:42.968Z,1008.09
2018-09-19T12:00:43.000Z,1008.07
2018-09-19T12:01:43.030Z,1008.05
2018-09-19T12:02:43.058Z,1008.07
2018-09-19T12:03:43.083Z,1008.02
2018-09-19T12:04:43.107Z,1008.04
2018-09-19T12:05:43.156Z,1008.01
2018-09-19T12:06:43.172Z,1008.00
2018-09-19T12:07:43.191Z,1007.94
2018-09-19T12:08:43.219Z,1007.92